sensor_id;sensor_type;location;lat;lon;timestamp;P1;durP1;ratioP1;P2;durP2;ratioP2
75628;SDS011;64213;46.452;16.994;2023-11-19T00:00:08;10.63;;;3.60;;
75628;SDS011;64213;46.452;16.994;2023-11-19T00:03:15;8.20;;;2.70;;
75628;SDS011;64213;46.452;16.994;2023-11-19T00:06:17;11.65;;;3.37;;
75628;SDS011;64213;46.452;16.994;2023-11-19T00:09:20;10.38;;;2.97;;
75628;SDS011;64213;46.452;16.994;2023-11-19T00:12:22;9.70;;;3.57;;
75628;SDS011;64213;46.452;16.994;2023-11-19T00:15:26;10.00;;;3.33;;
75628;SDS011;64213;46.452;16.994;2023-11-19T00:18:29;13.88;;;4.05;;
75628;SDS011;64213;46.452;16.994;2023-11-19T00:21:31;11.70;;;3.87;;
75628;SDS011;64213;46.452;16.994;2023-11-19T00:24:36;11.90;;;3.87;;
75628;SDS011;64213;46.452;16.994;2023-11-19T00:27:39;8.90;;;3.17;;
75628;SDS011;64213;46.452;16.994;2023-11-19T00:30:41;10.70;;;3.87;;
75628;SDS011;64213;46.452;16.994;2023-11-19T00:33:43;13.88;;;4.22;;
75628;SDS011;64213;46.452;16.994;2023-11-19T00:36:49;12.10;;;4.05;;
75628;SDS011;64213;46.452;16.994;2023-11-19T00:39:51;11.98;;;4.43;;
75628;SDS011;64213;46.452;16.994;2023-11-19T00:42:54;10.70;;;4.07;;
75628;SDS011;64213;46.452;16.994;2023-11-19T00:45:56;10.93;;;3.70;;
75628;SDS011;64213;46.452;16.994;2023-11-19T00:48:58;13.27;;;4.43;;
75628;SDS011;64213;46.452;16.994;2023-11-19T00:52:03;11.07;;;3.60;;
75628;SDS011;64213;46.452;16.994;2023-11-19T00:55:06;9.50;;;3.70;;
75628;SDS011;64213;46.452;16.994;2023-11-19T00:58:09;10.60;;;3.97;;
75628;SDS011;64213;46.452;16.994;2023-11-19T01:01:11;9.27;;;3.28;;
75628;SDS011;64213;46.452;16.994;2023-11-19T01:04:14;12.05;;;4.37;;
75628;SDS011;64213;46.452;16.994;2023-11-19T01:07:17;11.63;;;3.53;;
75628;SDS011;64213;46.452;16.994;2023-11-19T01:10:19;12.57;;;4.55;;
75628;SDS011;64213;46.452;16.994;2023-11-19T01:13:22;10.57;;;3.60;;
75628;SDS011;64213;46.452;16.994;2023-11-19T01:16:25;11.05;;;3.90;;
75628;SDS011;64213;46.452;16.994;2023-11-19T01:19:28;12.65;;;5.00;;
75628;SDS011;64213;46.452;16.994;2023-11-19T01:22:30;13.20;;;5.32;;
75628;SDS011;64213;46.452;16.994;2023-11-19T01:25:33;13.88;;;4.80;;
75628;SDS011;64213;46.452;16.994;2023-11-19T01:28:37;14.10;;;5.40;;
75628;SDS011;64213;46.452;16.994;2023-11-19T01:31:53;16.12;;;6.43;;
75628;SDS011;64213;46.452;16.994;2023-11-19T01:34:55;14.57;;;6.05;;
75628;SDS011;64213;46.452;16.994;2023-11-19T01:37:58;16.85;;;5.65;;
75628;SDS011;64213;46.452;16.994;2023-11-19T01:41:00;13.27;;;4.87;;
75628;SDS011;64213;46.452;16.994;2023-11-19T01:44:06;11.83;;;4.80;;
75628;SDS011;64213;46.452;16.994;2023-11-19T01:47:08;12.35;;;4.62;;
75628;SDS011;64213;46.452;16.994;2023-11-19T01:50:11;15.30;;;5.78;;
75628;SDS011;64213;46.452;16.994;2023-11-19T01:53:14;18.90;;;5.62;;
75628;SDS011;64213;46.452;16.994;2023-11-19T01:56:17;15.65;;;5.50;;
75628;SDS011;64213;46.452;16.994;2023-11-19T01:59:20;16.50;;;5.93;;
75628;SDS011;64213;46.452;16.994;2023-11-19T02:02:28;14.65;;;6.10;;
75628;SDS011;64213;46.452;16.994;2023-11-19T02:05:31;18.87;;;7.43;;
75628;SDS011;64213;46.452;16.994;2023-11-19T02:08:34;17.70;;;6.75;;
75628;SDS011;64213;46.452;16.994;2023-11-19T02:11:36;14.35;;;5.40;;
75628;SDS011;64213;46.452;16.994;2023-11-19T02:14:42;14.87;;;6.27;;
75628;SDS011;64213;46.452;16.994;2023-11-19T02:17:44;13.95;;;6.25;;
75628;SDS011;64213;46.452;16.994;2023-11-19T02:20:47;14.95;;;6.30;;
75628;SDS011;64213;46.452;16.994;2023-11-19T02:23:51;15.68;;;6.25;;
75628;SDS011;64213;46.452;16.994;2023-11-19T02:29:59;14.90;;;6.17;;
75628;SDS011;64213;46.452;16.994;2023-11-19T02:33:02;17.95;;;6.87;;
75628;SDS011;64213;46.452;16.994;2023-11-19T02:36:08;18.75;;;7.22;;
75628;SDS011;64213;46.452;16.994;2023-11-19T02:39:10;22.13;;;8.80;;
75628;SDS011;64213;46.452;16.994;2023-11-19T02:42:14;18.37;;;7.68;;
75628;SDS011;64213;46.452;16.994;2023-11-19T02:45:17;18.47;;;8.10;;
75628;SDS011;64213;46.452;16.994;2023-11-19T02:48:19;21.37;;;9.23;;
75628;SDS011;64213;46.452;16.994;2023-11-19T02:51:22;24.08;;;9.50;;
75628;SDS011;64213;46.452;16.994;2023-11-19T02:54:25;27.37;;;11.77;;
75628;SDS011;64213;46.452;16.994;2023-11-19T02:57:30;21.58;;;8.98;;
75628;SDS011;64213;46.452;16.994;2023-11-19T03:00:34;22.90;;;10.13;;
75628;SDS011;64213;46.452;16.994;2023-11-19T03:03:44;20.30;;;8.57;;
75628;SDS011;64213;46.452;16.994;2023-11-19T03:06:51;20.30;;;8.02;;
75628;SDS011;64213;46.452;16.994;2023-11-19T03:09:55;19.23;;;7.97;;
75628;SDS011;64213;46.452;16.994;2023-11-19T03:12:58;20.17;;;8.63;;
75628;SDS011;64213;46.452;16.994;2023-11-19T03:16:01;21.40;;;8.27;;
75628;SDS011;64213;46.452;16.994;2023-11-19T03:19:03;17.00;;;8.05;;
75628;SDS011;64213;46.452;16.994;2023-11-19T03:22:06;21.15;;;8.55;;
75628;SDS011;64213;46.452;16.994;2023-11-19T03:25:09;18.55;;;7.93;;
75628;SDS011;64213;46.452;16.994;2023-11-19T03:28:12;16.95;;;7.10;;
75628;SDS011;64213;46.452;16.994;2023-11-19T03:31:15;16.13;;;6.53;;
75628;SDS011;64213;46.452;16.994;2023-11-19T03:34:18;23.85;;;8.68;;
75628;SDS011;64213;46.452;16.994;2023-11-19T03:37:20;21.20;;;9.27;;
75628;SDS011;64213;46.452;16.994;2023-11-19T03:40:23;20.55;;;8.93;;
75628;SDS011;64213;46.452;16.994;2023-11-19T03:43:27;21.37;;;8.70;;
75628;SDS011;64213;46.452;16.994;2023-11-19T03:46:29;23.47;;;8.63;;
75628;SDS011;64213;46.452;16.994;2023-11-19T03:49:32;21.65;;;8.77;;
75628;SDS011;64213;46.452;16.994;2023-11-19T03:52:35;21.12;;;8.75;;
75628;SDS011;64213;46.452;16.994;2023-11-19T03:55:40;21.62;;;8.57;;
75628;SDS011;64213;46.452;16.994;2023-11-19T03:58:43;16.45;;;7.12;;
75628;SDS011;64213;46.452;16.994;2023-11-19T04:01:45;21.27;;;6.80;;
75628;SDS011;64213;46.452;16.994;2023-11-19T04:04:48;18.02;;;7.45;;
75628;SDS011;64213;46.452;16.994;2023-11-19T04:07:51;14.27;;;5.12;;
75628;SDS011;64213;46.452;16.994;2023-11-19T04:10:53;17.60;;;6.87;;
75628;SDS011;64213;46.452;16.994;2023-11-19T04:13:55;20.37;;;7.85;;
75628;SDS011;64213;46.452;16.994;2023-11-19T04:16:58;18.50;;;7.33;;
75628;SDS011;64213;46.452;16.994;2023-11-19T04:20:00;22.37;;;7.75;;
75628;SDS011;64213;46.452;16.994;2023-11-19T04:23:02;17.55;;;8.05;;
75628;SDS011;64213;46.452;16.994;2023-11-19T04:26:05;19.17;;;7.87;;
75628;SDS011;64213;46.452;16.994;2023-11-19T04:29:14;18.27;;;7.57;;
75628;SDS011;64213;46.452;16.994;2023-11-19T04:32:18;17.70;;;6.63;;
75628;SDS011;64213;46.452;16.994;2023-11-19T04:35:21;16.75;;;6.00;;
75628;SDS011;64213;46.452;16.994;2023-11-19T04:38:23;16.33;;;6.12;;
75628;SDS011;64213;46.452;16.994;2023-11-19T04:41:28;17.02;;;7.18;;
75628;SDS011;64213;46.452;16.994;2023-11-19T04:44:31;14.57;;;5.43;;
75628;SDS011;64213;46.452;16.994;2023-11-19T04:47:33;19.03;;;7.17;;
75628;SDS011;64213;46.452;16.994;2023-11-19T04:50:36;14.27;;;5.18;;
75628;SDS011;64213;46.452;16.994;2023-11-19T04:53:39;16.37;;;7.00;;
75628;SDS011;64213;46.452;16.994;2023-11-19T04:56:44;17.17;;;7.45;;
75628;SDS011;64213;46.452;16.994;2023-11-19T04:59:48;17.77;;;8.13;;
75628;SDS011;64213;46.452;16.994;2023-11-19T05:02:51;20.00;;;6.93;;
75628;SDS011;64213;46.452;16.994;2023-11-19T05:05:53;16.95;;;5.72;;
75628;SDS011;64213;46.452;16.994;2023-11-19T05:08:56;16.70;;;6.30;;
75628;SDS011;64213;46.452;16.994;2023-11-19T05:12:01;19.67;;;7.37;;
75628;SDS011;64213;46.452;16.994;2023-11-19T05:15:04;16.75;;;5.50;;
75628;SDS011;64213;46.452;16.994;2023-11-19T05:18:07;14.57;;;6.40;;
75628;SDS011;64213;46.452;16.994;2023-11-19T05:21:10;16.15;;;5.90;;
75628;SDS011;64213;46.452;16.994;2023-11-19T05:24:13;14.13;;;5.87;;
75628;SDS011;64213;46.452;16.994;2023-11-19T05:27:16;14.20;;;5.72;;
75628;SDS011;64213;46.452;16.994;2023-11-19T05:30:18;12.80;;;4.95;;
75628;SDS011;64213;46.452;16.994;2023-11-19T05:33:21;11.93;;;4.67;;
75628;SDS011;64213;46.452;16.994;2023-11-19T05:36:24;11.00;;;4.45;;
75628;SDS011;64213;46.452;16.994;2023-11-19T05:39:27;14.77;;;5.65;;
75628;SDS011;64213;46.452;16.994;2023-11-19T05:42:30;15.15;;;5.00;;
75628;SDS011;64213;46.452;16.994;2023-11-19T05:45:33;11.32;;;3.83;;
75628;SDS011;64213;46.452;16.994;2023-11-19T05:48:35;15.33;;;5.40;;
75628;SDS011;64213;46.452;16.994;2023-11-19T05:51:38;15.55;;;5.85;;
75628;SDS011;64213;46.452;16.994;2023-11-19T05:54:41;14.48;;;5.37;;
75628;SDS011;64213;46.452;16.994;2023-11-19T05:57:43;13.10;;;4.85;;
75628;SDS011;64213;46.452;16.994;2023-11-19T06:00:48;12.30;;;4.28;;
75628;SDS011;64213;46.452;16.994;2023-11-19T06:03:50;12.53;;;5.47;;
75628;SDS011;64213;46.452;16.994;2023-11-19T06:06:53;11.35;;;4.40;;
75628;SDS011;64213;46.452;16.994;2023-11-19T06:09:57;8.93;;;3.10;;
75628;SDS011;64213;46.452;16.994;2023-11-19T06:12:59;10.70;;;3.25;;
75628;SDS011;64213;46.452;16.994;2023-11-19T06:16:02;12.40;;;4.53;;
75628;SDS011;64213;46.452;16.994;2023-11-19T06:19:04;10.07;;;3.27;;
75628;SDS011;64213;46.452;16.994;2023-11-19T06:22:07;9.27;;;2.53;;
75628;SDS011;64213;46.452;16.994;2023-11-19T06:25:10;12.37;;;4.37;;
75628;SDS011;64213;46.452;16.994;2023-11-19T06:28:13;9.77;;;3.67;;
75628;SDS011;64213;46.452;16.994;2023-11-19T06:31:16;10.65;;;3.47;;
75628;SDS011;64213;46.452;16.994;2023-11-19T06:34:18;13.03;;;3.90;;
75628;SDS011;64213;46.452;16.994;2023-11-19T06:37:22;10.52;;;3.67;;
75628;SDS011;64213;46.452;16.994;2023-11-19T06:40:25;9.02;;;3.00;;
75628;SDS011;64213;46.452;16.994;2023-11-19T06:43:28;11.95;;;3.85;;
75628;SDS011;64213;46.452;16.994;2023-11-19T06:46:43;13.80;;;4.22;;
75628;SDS011;64213;46.452;16.994;2023-11-19T06:49:46;12.70;;;4.47;;
75628;SDS011;64213;46.452;16.994;2023-11-19T06:52:48;12.93;;;4.28;;
75628;SDS011;64213;46.452;16.994;2023-11-19T06:55:51;10.15;;;3.53;;
75628;SDS011;64213;46.452;16.994;2023-11-19T06:58:54;11.02;;;3.42;;
75628;SDS011;64213;46.452;16.994;2023-11-19T07:01:56;11.27;;;3.55;;
75628;SDS011;64213;46.452;16.994;2023-11-19T07:04:59;8.20;;;2.53;;
75628;SDS011;64213;46.452;16.994;2023-11-19T07:08:02;10.57;;;3.22;;
75628;SDS011;64213;46.452;16.994;2023-11-19T07:11:04;11.38;;;3.53;;
75628;SDS011;64213;46.452;16.994;2023-11-19T07:14:08;10.15;;;3.47;;
75628;SDS011;64213;46.452;16.994;2023-11-19T07:17:11;11.55;;;4.35;;
75628;SDS011;64213;46.452;16.994;2023-11-19T07:20:14;9.27;;;2.13;;
75628;SDS011;64213;46.452;16.994;2023-11-19T07:23:17;12.90;;;4.07;;
75628;SDS011;64213;46.452;16.994;2023-11-19T07:26:22;11.98;;;4.43;;
75628;SDS011;64213;46.452;16.994;2023-11-19T07:29:25;10.27;;;3.28;;
75628;SDS011;64213;46.452;16.994;2023-11-19T07:32:31;9.20;;;3.12;;
75628;SDS011;64213;46.452;16.994;2023-11-19T07:35:33;12.53;;;4.30;;
75628;SDS011;64213;46.452;16.994;2023-11-19T07:38:36;11.80;;;4.05;;
75628;SDS011;64213;46.452;16.994;2023-11-19T07:41:39;13.15;;;4.15;;
75628;SDS011;64213;46.452;16.994;2023-11-19T07:44:43;10.85;;;3.97;;
75628;SDS011;64213;46.452;16.994;2023-11-19T07:47:45;13.50;;;4.85;;
75628;SDS011;64213;46.452;16.994;2023-11-19T07:50:48;11.17;;;3.73;;
75628;SDS011;64213;46.452;16.994;2023-11-19T07:53:54;12.23;;;4.80;;
75628;SDS011;64213;46.452;16.994;2023-11-19T07:56:56;10.95;;;3.97;;
75628;SDS011;64213;46.452;16.994;2023-11-19T07:59:59;7.93;;;2.70;;
75628;SDS011;64213;46.452;16.994;2023-11-19T08:03:03;9.20;;;3.30;;
75628;SDS011;64213;46.452;16.994;2023-11-19T08:06:06;9.87;;;2.80;;
75628;SDS011;64213;46.452;16.994;2023-11-19T08:09:09;12.82;;;3.92;;
75628;SDS011;64213;46.452;16.994;2023-11-19T08:12:15;10.73;;;3.33;;
75628;SDS011;64213;46.452;16.994;2023-11-19T08:15:19;8.45;;;2.47;;
75628;SDS011;64213;46.452;16.994;2023-11-19T08:18:25;12.82;;;4.03;;
75628;SDS011;64213;46.452;16.994;2023-11-19T08:21:29;19.67;;;3.70;;
75628;SDS011;64213;46.452;16.994;2023-11-19T08:24:32;13.88;;;4.28;;
75628;SDS011;64213;46.452;16.994;2023-11-19T08:27:36;11.05;;;3.70;;
75628;SDS011;64213;46.452;16.994;2023-11-19T08:30:40;12.73;;;4.43;;
75628;SDS011;64213;46.452;16.994;2023-11-19T08:33:44;12.57;;;4.50;;
75628;SDS011;64213;46.452;16.994;2023-11-19T08:36:54;12.00;;;4.03;;
75628;SDS011;64213;46.452;16.994;2023-11-19T08:39:59;11.60;;;3.92;;
75628;SDS011;64213;46.452;16.994;2023-11-19T08:43:01;9.07;;;3.47;;
75628;SDS011;64213;46.452;16.994;2023-11-19T08:46:04;9.82;;;3.40;;
75628;SDS011;64213;46.452;16.994;2023-11-19T08:49:11;12.07;;;4.65;;
75628;SDS011;64213;46.452;16.994;2023-11-19T08:52:14;10.33;;;2.73;;
75628;SDS011;64213;46.452;16.994;2023-11-19T08:55:19;9.63;;;2.97;;
75628;SDS011;64213;46.452;16.994;2023-11-19T08:58:22;12.73;;;4.40;;
75628;SDS011;64213;46.452;16.994;2023-11-19T09:01:25;10.80;;;3.70;;
75628;SDS011;64213;46.452;16.994;2023-11-19T09:04:28;12.50;;;3.92;;
75628;SDS011;64213;46.452;16.994;2023-11-19T09:07:31;12.33;;;3.70;;
75628;SDS011;64213;46.452;16.994;2023-11-19T09:10:34;7.62;;;2.45;;
75628;SDS011;64213;46.452;16.994;2023-11-19T09:13:37;10.07;;;3.17;;
75628;SDS011;64213;46.452;16.994;2023-11-19T09:16:40;10.35;;;3.20;;
75628;SDS011;64213;46.452;16.994;2023-11-19T09:19:43;13.93;;;4.68;;
75628;SDS011;64213;46.452;16.994;2023-11-19T09:22:46;11.20;;;3.80;;
75628;SDS011;64213;46.452;16.994;2023-11-19T09:25:48;11.70;;;3.72;;
75628;SDS011;64213;46.452;16.994;2023-11-19T09:28:51;10.18;;;3.37;;
75628;SDS011;64213;46.452;16.994;2023-11-19T09:31:53;10.00;;;2.85;;
75628;SDS011;64213;46.452;16.994;2023-11-19T09:34:56;11.40;;;3.90;;
75628;SDS011;64213;46.452;16.994;2023-11-19T09:37:58;8.03;;;2.40;;
75628;SDS011;64213;46.452;16.994;2023-11-19T09:41:04;11.50;;;3.42;;
75628;SDS011;64213;46.452;16.994;2023-11-19T09:44:10;8.98;;;2.72;;
75628;SDS011;64213;46.452;16.994;2023-11-19T09:47:14;10.80;;;3.37;;
75628;SDS011;64213;46.452;16.994;2023-11-19T09:50:19;8.25;;;2.55;;
75628;SDS011;64213;46.452;16.994;2023-11-19T09:53:23;8.93;;;2.80;;
75628;SDS011;64213;46.452;16.994;2023-11-19T09:56:26;8.10;;;2.25;;
75628;SDS011;64213;46.452;16.994;2023-11-19T09:59:33;6.20;;;1.83;;
75628;SDS011;64213;46.452;16.994;2023-11-19T10:02:35;8.07;;;2.30;;
75628;SDS011;64213;46.452;16.994;2023-11-19T10:05:39;6.85;;;1.87;;
75628;SDS011;64213;46.452;16.994;2023-11-19T10:08:43;7.63;;;2.33;;
75628;SDS011;64213;46.452;16.994;2023-11-19T10:11:46;7.65;;;2.00;;
75628;SDS011;64213;46.452;16.994;2023-11-19T10:14:48;6.65;;;2.05;;
75628;SDS011;64213;46.452;16.994;2023-11-19T10:17:56;6.22;;;1.62;;
75628;SDS011;64213;46.452;16.994;2023-11-19T10:20:59;7.45;;;2.17;;
75628;SDS011;64213;46.452;16.994;2023-11-19T10:24:02;7.53;;;2.20;;
75628;SDS011;64213;46.452;16.994;2023-11-19T10:27:09;7.50;;;1.90;;
75628;SDS011;64213;46.452;16.994;2023-11-19T10:30:11;8.25;;;2.67;;
75628;SDS011;64213;46.452;16.994;2023-11-19T10:33:14;7.87;;;2.65;;
75628;SDS011;64213;46.452;16.994;2023-11-19T10:36:22;8.82;;;2.45;;
75628;SDS011;64213;46.452;16.994;2023-11-19T10:43:02;10.40;;;3.33;;
75628;SDS011;64213;46.452;16.994;2023-11-19T10:46:09;8.00;;;2.72;;
75628;SDS011;64213;46.452;16.994;2023-11-19T10:49:13;8.70;;;2.72;;
75628;SDS011;64213;46.452;16.994;2023-11-19T10:52:17;7.68;;;2.40;;
75628;SDS011;64213;46.452;16.994;2023-11-19T10:55:23;7.77;;;2.00;;
75628;SDS011;64213;46.452;16.994;2023-11-19T10:58:29;8.23;;;2.22;;
75628;SDS011;64213;46.452;16.994;2023-11-19T11:01:45;7.57;;;2.03;;
75628;SDS011;64213;46.452;16.994;2023-11-19T11:04:50;7.57;;;2.12;;
75628;SDS011;64213;46.452;16.994;2023-11-19T11:07:55;9.07;;;2.92;;
75628;SDS011;64213;46.452;16.994;2023-11-19T11:10:58;5.20;;;1.27;;
75628;SDS011;64213;46.452;16.994;2023-11-19T11:14:01;3.12;;;0.77;;
75628;SDS011;64213;46.452;16.994;2023-11-19T11:17:08;7.78;;;2.15;;
75628;SDS011;64213;46.452;16.994;2023-11-19T11:20:13;10.38;;;3.00;;
75628;SDS011;64213;46.452;16.994;2023-11-19T11:30:26;7.62;;;2.35;;
75628;SDS011;64213;46.452;16.994;2023-11-19T11:33:45;9.48;;;3.10;;
75628;SDS011;64213;46.452;16.994;2023-11-19T11:37:11;6.35;;;1.85;;
75628;SDS011;64213;46.452;16.994;2023-11-19T11:40:25;8.68;;;2.62;;
75628;SDS011;64213;46.452;16.994;2023-11-19T11:46:53;7.28;;;1.98;;
75628;SDS011;64213;46.452;16.994;2023-11-19T11:49:56;8.02;;;1.90;;
75628;SDS011;64213;46.452;16.994;2023-11-19T11:53:16;6.45;;;1.62;;
75628;SDS011;64213;46.452;16.994;2023-11-19T11:56:19;10.30;;;3.17;;
75628;SDS011;64213;46.452;16.994;2023-11-19T11:59:23;7.87;;;2.40;;
75628;SDS011;64213;46.452;16.994;2023-11-19T12:02:26;10.73;;;2.83;;
75628;SDS011;64213;46.452;16.994;2023-11-19T12:05:29;8.07;;;2.50;;
75628;SDS011;64213;46.452;16.994;2023-11-19T12:08:32;6.55;;;1.73;;
75628;SDS011;64213;46.452;16.994;2023-11-19T12:15:15;9.70;;;3.00;;
75628;SDS011;64213;46.452;16.994;2023-11-19T12:18:18;9.15;;;3.10;;
75628;SDS011;64213;46.452;16.994;2023-11-19T12:21:28;9.27;;;2.40;;
75628;SDS011;64213;46.452;16.994;2023-11-19T12:24:32;6.87;;;1.27;;
75628;SDS011;64213;46.452;16.994;2023-11-19T12:27:36;7.47;;;2.28;;
75628;SDS011;64213;46.452;16.994;2023-11-19T12:30:43;9.93;;;3.40;;
75628;SDS011;64213;46.452;16.994;2023-11-19T12:33:46;7.95;;;1.80;;
75628;SDS011;64213;46.452;16.994;2023-11-19T12:36:50;10.90;;;3.75;;
75628;SDS011;64213;46.452;16.994;2023-11-19T12:39:52;9.35;;;3.17;;
75628;SDS011;64213;46.452;16.994;2023-11-19T12:42:55;6.45;;;1.75;;
75628;SDS011;64213;46.452;16.994;2023-11-19T12:45:58;9.73;;;2.97;;
75628;SDS011;64213;46.452;16.994;2023-11-19T12:49:00;9.77;;;3.25;;
75628;SDS011;64213;46.452;16.994;2023-11-19T12:52:11;10.73;;;3.35;;
75628;SDS011;64213;46.452;16.994;2023-11-19T12:55:25;11.02;;;3.35;;
75628;SDS011;64213;46.452;16.994;2023-11-19T12:58:35;9.02;;;3.40;;
75628;SDS011;64213;46.452;16.994;2023-11-19T13:01:38;7.97;;;2.37;;
75628;SDS011;64213;46.452;16.994;2023-11-19T13:04:42;9.68;;;2.50;;
75628;SDS011;64213;46.452;16.994;2023-11-19T13:07:44;9.50;;;3.47;;
75628;SDS011;64213;46.452;16.994;2023-11-19T13:10:50;8.30;;;2.50;;
75628;SDS011;64213;46.452;16.994;2023-11-19T13:13:55;13.52;;;3.65;;
75628;SDS011;64213;46.452;16.994;2023-11-19T13:17:02;9.73;;;3.80;;
75628;SDS011;64213;46.452;16.994;2023-11-19T13:20:04;10.05;;;3.60;;
75628;SDS011;64213;46.452;16.994;2023-11-19T13:23:08;9.18;;;2.70;;
75628;SDS011;64213;46.452;16.994;2023-11-19T13:26:11;10.85;;;3.58;;
75628;SDS011;64213;46.452;16.994;2023-11-19T13:29:14;11.30;;;4.12;;
75628;SDS011;64213;46.452;16.994;2023-11-19T13:32:17;11.53;;;3.97;;
75628;SDS011;64213;46.452;16.994;2023-11-19T13:35:19;10.40;;;3.75;;
75628;SDS011;64213;46.452;16.994;2023-11-19T13:38:22;10.25;;;3.62;;
75628;SDS011;64213;46.452;16.994;2023-11-19T13:41:26;10.65;;;3.90;;
75628;SDS011;64213;46.452;16.994;2023-11-19T13:44:28;9.85;;;3.42;;
75628;SDS011;64213;46.452;16.994;2023-11-19T13:47:31;9.40;;;2.60;;
75628;SDS011;64213;46.452;16.994;2023-11-19T13:50:34;9.77;;;3.47;;
75628;SDS011;64213;46.452;16.994;2023-11-19T13:53:36;12.75;;;3.87;;
75628;SDS011;64213;46.452;16.994;2023-11-19T13:56:42;7.97;;;2.53;;
75628;SDS011;64213;46.452;16.994;2023-11-19T13:59:47;10.80;;;4.15;;
75628;SDS011;64213;46.452;16.994;2023-11-19T14:02:49;9.90;;;3.93;;
75628;SDS011;64213;46.452;16.994;2023-11-19T14:05:52;13.68;;;4.10;;
75628;SDS011;64213;46.452;16.994;2023-11-19T14:08:57;10.73;;;4.15;;
75628;SDS011;64213;46.452;16.994;2023-11-19T14:12:00;11.93;;;3.90;;
75628;SDS011;64213;46.452;16.994;2023-11-19T14:15:02;13.55;;;5.10;;
75628;SDS011;64213;46.452;16.994;2023-11-19T14:18:07;11.33;;;4.43;;
75628;SDS011;64213;46.452;16.994;2023-11-19T14:21:10;10.73;;;4.32;;
75628;SDS011;64213;46.452;16.994;2023-11-19T14:24:12;12.10;;;4.60;;
75628;SDS011;64213;46.452;16.994;2023-11-19T14:27:15;12.90;;;4.10;;
75628;SDS011;64213;46.452;16.994;2023-11-19T14:30:19;14.77;;;5.10;;
75628;SDS011;64213;46.452;16.994;2023-11-19T14:33:21;11.80;;;4.37;;
75628;SDS011;64213;46.452;16.994;2023-11-19T14:36:23;12.32;;;4.28;;
75628;SDS011;64213;46.452;16.994;2023-11-19T14:39:25;14.48;;;5.50;;
75628;SDS011;64213;46.452;16.994;2023-11-19T14:42:28;14.10;;;5.93;;
75628;SDS011;64213;46.452;16.994;2023-11-19T14:45:31;13.77;;;6.00;;
75628;SDS011;64213;46.452;16.994;2023-11-19T14:48:45;15.33;;;6.07;;
75628;SDS011;64213;46.452;16.994;2023-11-19T14:51:48;15.30;;;5.47;;
75628;SDS011;64213;46.452;16.994;2023-11-19T14:54:51;13.05;;;4.65;;
75628;SDS011;64213;46.452;16.994;2023-11-19T14:57:56;13.05;;;5.07;;
75628;SDS011;64213;46.452;16.994;2023-11-19T15:01:12;16.80;;;5.85;;
75628;SDS011;64213;46.452;16.994;2023-11-19T15:04:16;15.07;;;5.67;;
75628;SDS011;64213;46.452;16.994;2023-11-19T15:07:19;14.30;;;6.00;;
75628;SDS011;64213;46.452;16.994;2023-11-19T15:10:23;12.98;;;5.70;;
75628;SDS011;64213;46.452;16.994;2023-11-19T15:13:27;13.73;;;5.20;;
75628;SDS011;64213;46.452;16.994;2023-11-19T15:16:30;13.82;;;5.85;;
75628;SDS011;64213;46.452;16.994;2023-11-19T15:19:35;13.83;;;5.77;;
75628;SDS011;64213;46.452;16.994;2023-11-19T15:22:38;14.98;;;6.37;;
75628;SDS011;64213;46.452;16.994;2023-11-19T15:25:40;19.95;;;6.68;;
75628;SDS011;64213;46.452;16.994;2023-11-19T15:28:44;13.52;;;5.07;;
75628;SDS011;64213;46.452;16.994;2023-11-19T15:31:46;13.40;;;5.22;;
75628;SDS011;64213;46.452;16.994;2023-11-19T15:34:49;13.37;;;5.77;;
75628;SDS011;64213;46.452;16.994;2023-11-19T15:37:52;15.45;;;6.68;;
75628;SDS011;64213;46.452;16.994;2023-11-19T15:40:55;13.82;;;5.75;;
75628;SDS011;64213;46.452;16.994;2023-11-19T15:43:58;15.43;;;7.00;;
75628;SDS011;64213;46.452;16.994;2023-11-19T15:47:01;14.18;;;5.55;;
75628;SDS011;64213;46.452;16.994;2023-11-19T15:50:04;17.00;;;6.63;;
75628;SDS011;64213;46.452;16.994;2023-11-19T15:53:07;14.32;;;5.85;;
75628;SDS011;64213;46.452;16.994;2023-11-19T15:56:13;13.45;;;4.60;;
75628;SDS011;64213;46.452;16.994;2023-11-19T15:59:15;13.07;;;5.28;;
75628;SDS011;64213;46.452;16.994;2023-11-19T16:02:18;15.13;;;5.62;;
75628;SDS011;64213;46.452;16.994;2023-11-19T16:05:21;10.73;;;3.50;;
75628;SDS011;64213;46.452;16.994;2023-11-19T16:08:25;12.80;;;3.72;;
75628;SDS011;64213;46.452;16.994;2023-11-19T16:11:28;14.35;;;4.97;;
75628;SDS011;64213;46.452;16.994;2023-11-19T16:14:34;13.95;;;5.90;;
75628;SDS011;64213;46.452;16.994;2023-11-19T16:17:37;15.82;;;5.85;;
75628;SDS011;64213;46.452;16.994;2023-11-19T16:20:40;18.90;;;6.33;;
75628;SDS011;64213;46.452;16.994;2023-11-19T16:23:44;14.30;;;5.20;;
75628;SDS011;64213;46.452;16.994;2023-11-19T16:26:47;16.05;;;5.70;;
75628;SDS011;64213;46.452;16.994;2023-11-19T16:29:50;13.05;;;5.28;;
75628;SDS011;64213;46.452;16.994;2023-11-19T16:32:56;13.00;;;5.25;;
75628;SDS011;64213;46.452;16.994;2023-11-19T16:36:04;17.47;;;5.13;;
75628;SDS011;64213;46.452;16.994;2023-11-19T16:39:09;12.88;;;5.45;;
75628;SDS011;64213;46.452;16.994;2023-11-19T16:42:17;12.73;;;5.22;;
75628;SDS011;64213;46.452;16.994;2023-11-19T16:45:23;11.27;;;3.78;;
75628;SDS011;64213;46.452;16.994;2023-11-19T16:48:25;14.32;;;5.25;;
75628;SDS011;64213;46.452;16.994;2023-11-19T16:51:30;14.33;;;4.97;;
75628;SDS011;64213;46.452;16.994;2023-11-19T16:54:33;17.37;;;5.97;;
75628;SDS011;64213;46.452;16.994;2023-11-19T16:57:39;16.40;;;6.47;;
75628;SDS011;64213;46.452;16.994;2023-11-19T17:00:42;18.40;;;7.15;;
75628;SDS011;64213;46.452;16.994;2023-11-19T17:03:47;22.55;;;8.77;;
75628;SDS011;64213;46.452;16.994;2023-11-19T17:07:08;18.47;;;6.70;;
75628;SDS011;64213;46.452;16.994;2023-11-19T17:10:13;17.12;;;6.00;;
75628;SDS011;64213;46.452;16.994;2023-11-19T17:13:15;14.87;;;6.35;;
75628;SDS011;64213;46.452;16.994;2023-11-19T17:16:19;17.80;;;7.70;;
75628;SDS011;64213;46.452;16.994;2023-11-19T17:19:24;21.80;;;6.43;;
75628;SDS011;64213;46.452;16.994;2023-11-19T17:22:29;14.37;;;6.10;;
75628;SDS011;64213;46.452;16.994;2023-11-19T17:25:33;16.73;;;6.93;;
75628;SDS011;64213;46.452;16.994;2023-11-19T17:28:37;18.08;;;6.43;;
75628;SDS011;64213;46.452;16.994;2023-11-19T17:31:42;18.42;;;7.72;;
75628;SDS011;64213;46.452;16.994;2023-11-19T17:34:50;13.85;;;5.90;;
75628;SDS011;64213;46.452;16.994;2023-11-19T17:37:55;19.63;;;7.27;;
75628;SDS011;64213;46.452;16.994;2023-11-19T17:40:58;18.33;;;6.47;;
75628;SDS011;64213;46.452;16.994;2023-11-19T17:44:02;19.50;;;7.62;;
75628;SDS011;64213;46.452;16.994;2023-11-19T17:47:07;21.30;;;9.82;;
75628;SDS011;64213;46.452;16.994;2023-11-19T17:50:11;20.10;;;8.70;;
75628;SDS011;64213;46.452;16.994;2023-11-19T17:53:18;19.93;;;8.27;;
75628;SDS011;64213;46.452;16.994;2023-11-19T17:56:22;19.77;;;8.73;;
75628;SDS011;64213;46.452;16.994;2023-11-19T17:59:27;16.33;;;6.32;;
75628;SDS011;64213;46.452;16.994;2023-11-19T18:02:31;15.77;;;7.32;;
75628;SDS011;64213;46.452;16.994;2023-11-19T18:05:40;20.92;;;8.65;;
75628;SDS011;64213;46.452;16.994;2023-11-19T18:08:45;26.57;;;9.93;;
75628;SDS011;64213;46.452;16.994;2023-11-19T18:11:49;18.48;;;6.40;;
75628;SDS011;64213;46.452;16.994;2023-11-19T18:15:03;21.30;;;7.75;;
75628;SDS011;64213;46.452;16.994;2023-11-19T18:18:11;24.77;;;8.45;;